createdAt,value
2018-07-31T00:00:58.664Z,100657.90
2018-07-31T00:03:28.543Z,100659.91
2018-07-31T00:05:58.648Z,100662.46
2018-07-31T00:08:28.507Z,100660.72
2018-07-31T00:10:58.532Z,100660.44
2018-07-31T00:13:28.440Z,100667.42
2018-07-31T00:15:58.333Z,100670.70
2018-07-31T00:18:29.158Z,100662.47
2018-07-31T00:20:59.138Z,100668.63
2018-07-31T00:23:29.392Z,100672.47
2018-07-31T00:25:59.275Z,100669.97
2018-07-31T00:28:29.267Z,100661.48
2018-07-31T00:30:59.219Z,100661.42
2018-07-31T00:33:29.145Z,100660.17
2018-07-31T00:35:59.149Z,100663.62
2018-07-31T00:38:29.171Z,100664.50
2018-07-31T00:40:59.160Z,100659.39
2018-07-31T00:43:29.214Z,100655.48
2018-07-31T00:45:59.311Z,100647.09
2018-07-31T00:48:29.193Z,100650.73
2018-07-31T00:50:59.173Z,100652.43
2018-07-31T00:53:29.112Z,100650.02
2018-07-31T00:55:58.811Z,100652.20
2018-07-31T00:58:28.920Z,100645.72
2018-07-31T01:00:59.842Z,100646.57
2018-07-31T01:03:30.074Z,100643.16
2018-07-31T01:06:00.096Z,100637.06
2018-07-31T01:08:30.303Z,100637.75
2018-07-31T01:11:00.296Z,100633.92
2018-07-31T01:13:30.568Z,100632.59
2018-07-31T01:16:00.515Z,100630.67
2018-07-31T01:18:30.603Z,100618.88
2018-07-31T01:21:01.248Z,100623.19
2018-07-31T01:23:31.461Z,100620.13
2018-07-31T01:26:01.479Z,100620.06
2018-07-31T01:28:31.404Z,100624.74
2018-07-31T01:31:01.244Z,100624.79
2018-07-31T01:33:31.199Z,100627.45
2018-07-31T01:36:01.382Z,100632.78
2018-07-31T01:38:31.288Z,100626.77
2018-07-31T01:41:01.384Z,100632.35
2018-07-31T01:43:31.472Z,100631.66
2018-07-31T01:46:01.510Z,100622.07
2018-07-31T01:48:31.913Z,100622.95
2018-07-31T01:51:07.620Z,100622.89
2018-07-31T01:53:37.835Z,100624.23
2018-07-31T01:56:07.698Z,100620.72
2018-07-31T01:58:37.688Z,100627.50
2018-07-31T02:01:07.640Z,100624.73
2018-07-31T02:03:37.936Z,100623.61
2018-07-31T02:06:08.986Z,100625.14
2018-07-31T02:08:39.070Z,100627.69
2018-07-31T02:11:09.241Z,100633.05
2018-07-31T02:13:39.291Z,100627.44
2018-07-31T02:16:09.156Z,100628.70
2018-07-31T02:18:39.172Z,100631.97
2018-07-31T02:21:09.176Z,100637.02
2018-07-31T02:23:39.089Z,100636.31
2018-07-31T02:26:09.103Z,100637.70
2018-07-31T02:28:39.312Z,100649.65
2018-07-31T02:31:09.905Z,100644.41
2018-07-31T02:33:39.767Z,100649.58
2018-07-31T02:36:09.771Z,100648.30
2018-07-31T02:38:40.296Z,100647.52
2018-07-31T02:41:10.277Z,100645.44
2018-07-31T02:43:40.283Z,100645.93
2018-07-31T02:46:10.328Z,100651.25
2018-07-31T02:48:40.304Z,100651.88
2018-07-31T02:51:10.605Z,100653.98
2018-07-31T02:53:46.034Z,100654.94
2018-07-31T02:56:15.895Z,100655.00
2018-07-31T02:58:45.840Z,100654.19
2018-07-31T03:01:15.760Z,100655.39
2018-07-31T03:03:45.992Z,100662.80
2018-07-31T03:06:16.967Z,100664.33
2018-07-31T03:08:47.129Z,100656.67
2018-07-31T03:11:17.148Z,100655.08
2018-07-31T03:13:47.472Z,100649.65
2018-07-31T03:16:17.464Z,100658.66
2018-07-31T03:18:47.661Z,100637.97
2018-07-31T03:21:17.675Z,100655.51
2018-07-31T03:23:47.649Z,100656.92
2018-07-31T03:26:17.891Z,100651.98
2018-07-31T03:28:47.791Z,100664.25
2018-07-31T03:31:17.701Z,100667.13
2018-07-31T03:33:47.822Z,100664.18
2018-07-31T03:36:17.662Z,100658.23
2018-07-31T03:38:47.572Z,100667.27
2018-07-31T03:41:17.562Z,100669.50
2018-07-31T03:43:47.652Z,100673.56
2018-07-31T03:46:17.668Z,100672.61
2018-07-31T03:48:47.620Z,100670.91
2018-07-31T03:51:17.848Z,100673.00
2018-07-31T03:53:53.259Z,100668.72
2018-07-31T03:56:23.211Z,100672.70
2018-07-31T03:58:53.052Z,100678.56
2018-07-31T04:01:23.048Z,100681.55
2018-07-31T04:03:53.076Z,100683.63
2018-07-31T04:06:23.423Z,100680.20
2018-07-31T04:08:53.682Z,100683.73
2018-07-31T04:11:23.941Z,100680.72
2018-07-31T04:13:53.928Z,100680.11
2018-07-31T04:16:23.995Z,100682.70
2018-07-31T04:18:54.379Z,100694.16
2018-07-31T04:21:24.668Z,100695.73
2018-07-31T04:23:55.140Z,100685.23
2018-07-31T04:26:25.183Z,100684.89
2018-07-31T04:28:55.078Z,100680.11
2018-07-31T04:31:25.173Z,100682.73
2018-07-31T04:33:55.202Z,100679.69
2018-07-31T04:36:25.330Z,100678.06
2018-07-31T04:38:55.245Z,100679.11
2018-07-31T04:41:25.068Z,100678.52
2018-07-31T04:43:54.923Z,100680.08
2018-07-31T04:46:25.132Z,100675.75
2018-07-31T04:48:55.153Z,100669.91
2018-07-31T04:51:25.145Z,100666.23
2018-07-31T04:53:54.977Z,100663.53
2018-07-31T04:56:24.857Z,100666.69
2018-07-31T04:58:54.917Z,100666.55
2018-07-31T05:01:24.888Z,100669.52
2018-07-31T05:03:55.080Z,100675.39
2018-07-31T05:06:25.416Z,100680.52
2018-07-31T05:08:55.420Z,100683.67
2018-07-31T05:11:25.508Z,100684.75
2018-07-31T05:13:55.427Z,100687.19
2018-07-31T05:16:25.415Z,100688.50
2018-07-31T05:18:55.362Z,100695.81
2018-07-31T05:21:25.449Z,100700.44
2018-07-31T05:23:55.420Z,100698.81
2018-07-31T05:26:25.877Z,100702.22
2018-07-31T05:28:56.252Z,100705.78
2018-07-31T05:31:27.448Z,100709.16
2018-07-31T05:33:57.795Z,100711.94
2018-07-31T05:36:28.131Z,100715.33
2018-07-31T05:38:58.616Z,100717.82
2018-07-31T05:41:28.632Z,100725.96
2018-07-31T05:43:58.508Z,100722.46
2018-07-31T05:46:28.425Z,100716.85
2018-07-31T05:48:58.736Z,100717.84
2018-07-31T05:51:28.777Z,100712.23
2018-07-31T05:53:58.884Z,100721.77
2018-07-31T05:56:28.830Z,100726.13
2018-07-31T05:58:58.943Z,100719.89
2018-07-31T06:01:29.087Z,100722.41
2018-07-31T06:03:59.245Z,100720.48
2018-07-31T06:06:29.700Z,100719.72
2018-07-31T06:08:59.716Z,100725.38
2018-07-31T06:11:29.780Z,100712.89
2018-07-31T06:13:59.905Z,100710.23
2018-07-31T06:16:30.186Z,100712.63
2018-07-31T06:19:00.283Z,100707.22
2018-07-31T06:21:30.291Z,100701.40
2018-07-31T06:24:00.549Z,100703.05
2018-07-31T06:26:30.939Z,100698.16
2018-07-31T06:29:01.060Z,100703.09
2018-07-31T06:31:31.754Z,100700.53
2018-07-31T06:34:02.076Z,100695.30
2018-07-31T06:36:32.046Z,100696.35
2018-07-31T06:39:02.656Z,100699.09
2018-07-31T06:41:33.118Z,100698.39
2018-07-31T06:44:03.979Z,100706.59
2018-07-31T06:46:34.472Z,100711.95
2018-07-31T06:49:04.857Z,100707.06
2018-07-31T06:51:34.818Z,100708.22
2018-07-31T06:54:04.949Z,100710.28
2018-07-31T06:56:34.702Z,100710.86
2018-07-31T06:59:04.560Z,100723.77
2018-07-31T07:01:34.732Z,100717.76
2018-07-31T07:04:05.220Z,100725.70
2018-07-31T07:06:35.353Z,100730.22
2018-07-31T07:09:08.286Z,100727.93
2018-07-31T07:11:38.612Z,100729.80
2018-07-31T07:14:08.599Z,100726.90
2018-07-31T07:16:39.059Z,100722.17
2018-07-31T07:19:09.208Z,100723.69
2018-07-31T07:21:39.440Z,100722.55
2018-07-31T07:24:09.488Z,100720.27
2018-07-31T07:26:39.483Z,100707.78
2018-07-31T07:29:09.480Z,100703.32
2018-07-31T07:31:39.531Z,100707.14
2018-07-31T07:34:09.959Z,100705.17
2018-07-31T07:36:40.041Z,100711.84
2018-07-31T07:39:12.241Z,100717.98
2018-07-31T07:41:42.449Z,100731.46
2018-07-31T07:44:12.584Z,100741.20
2018-07-31T07:46:42.776Z,100752.84
2018-07-31T07:49:13.099Z,100753.45
2018-07-31T07:51:43.352Z,100757.61
2018-07-31T07:54:13.666Z,100757.55
2018-07-31T07:56:43.525Z,100754.61
2018-07-31T07:59:13.744Z,100764.88
2018-07-31T08:01:43.787Z,100769.90
2018-07-31T08:04:14.289Z,100760.98
2018-07-31T08:06:44.841Z,100764.80
2018-07-31T08:09:14.976Z,100763.70
2018-07-31T08:11:44.860Z,100751.91
2018-07-31T08:14:15.217Z,100753.06
2018-07-31T08:16:45.759Z,100749.66
2018-07-31T08:19:15.697Z,100753.67
2018-07-31T08:21:45.608Z,100761.05
2018-07-31T08:24:15.711Z,100761.02
2018-07-31T08:26:45.736Z,100754.84
2018-07-31T08:29:15.680Z,100751.59
2018-07-31T08:31:46.064Z,100758.89
2018-07-31T08:34:16.057Z,100762.78
2018-07-31T08:36:46.066Z,100766.52
2018-07-31T08:39:16.047Z,100759.08
2018-07-31T08:41:45.968Z,100748.80
2018-07-31T08:44:16.183Z,100749.64
2018-07-31T08:46:46.614Z,100744.56
2018-07-31T08:49:16.795Z,100733.80
2018-07-31T08:51:46.716Z,100742.89
2018-07-31T08:54:16.538Z,100751.24
2018-07-31T08:56:46.362Z,100740.28
2018-07-31T08:59:16.731Z,100739.88
2018-07-31T09:01:46.617Z,100742.94
2018-07-31T09:04:16.656Z,100742.23
2018-07-31T09:06:46.747Z,100743.67
2018-07-31T09:09:16.640Z,100744.05
2018-07-31T09:11:46.593Z,100745.26
2018-07-31T09:14:16.924Z,100746.43
2018-07-31T09:16:46.972Z,100749.08
2018-07-31T09:19:16.914Z,100748.38
2018-07-31T09:21:46.887Z,100750.16
2018-07-31T09:24:17.077Z,100753.11
2018-07-31T09:26:46.956Z,100749.19
2018-07-31T09:29:16.975Z,100752.62
2018-07-31T09:31:46.960Z,100745.09
2018-07-31T09:34:16.824Z,100745.49
2018-07-31T09:36:46.796Z,100745.89
2018-07-31T09:39:16.760Z,100739.82
2018-07-31T09:41:47.053Z,100741.56
2018-07-31T09:44:17.465Z,100729.56
2018-07-31T09:46:47.327Z,100737.63
2018-07-31T09:49:17.314Z,100732.30
2018-07-31T09:51:47.659Z,100731.18
2018-07-31T09:54:17.742Z,100727.58
2018-07-31T09:56:47.852Z,100730.83
2018-07-31T09:59:17.992Z,100726.59
2018-07-31T10:01:48.311Z,100731.55
2018-07-31T10:04:18.424Z,100733.60
2018-07-31T10:06:48.736Z,100731.92
2018-07-31T10:09:18.930Z,100731.41
2018-07-31T10:11:49.432Z,100729.34
2018-07-31T10:14:19.641Z,100733.62
2018-07-31T10:16:49.617Z,100733.58
2018-07-31T10:19:20.078Z,100729.16
2018-07-31T10:21:50.032Z,100725.86
2018-07-31T10:24:19.983Z,100724.17
2018-07-31T10:26:50.008Z,100716.77
2018-07-31T10:29:19.979Z,100719.22
2018-07-31T10:31:50.024Z,100719.19
2018-07-31T10:34:20.395Z,100711.17
2018-07-31T10:36:50.418Z,100710.78
2018-07-31T10:39:20.323Z,100714.02
2018-07-31T10:41:50.261Z,100711.27
2018-07-31T10:44:20.446Z,100713.94
2018-07-31T10:46:50.291Z,100706.28
2018-07-31T10:49:20.343Z,100703.36
2018-07-31T10:51:50.211Z,100708.02
2018-07-31T10:54:20.123Z,100703.50
2018-07-31T10:56:50.046Z,100700.73
2018-07-31T10:59:20.401Z,100701.61
2018-07-31T11:01:50.602Z,100708.34
2018-07-31T11:04:20.816Z,100701.70
2018-07-31T11:06:51.329Z,100703.18
2018-07-31T11:09:21.668Z,100702.47
2018-07-31T11:11:51.993Z,100700.42
2018-07-31T11:14:21.907Z,100704.77
2018-07-31T11:16:52.098Z,100707.44
2018-07-31T11:19:22.456Z,100700.73
2018-07-31T11:21:52.596Z,100699.68
2018-07-31T11:24:22.459Z,100703.89
2018-07-31T11:26:52.636Z,100705.19
2018-07-31T11:29:22.596Z,100706.50
2018-07-31T11:31:54.379Z,100701.43
2018-07-31T11:34:24.827Z,100702.45
2018-07-31T11:36:54.681Z,100705.14
2018-07-31T11:39:24.781Z,100699.72
2018-07-31T11:41:54.644Z,100698.47
2018-07-31T11:44:24.681Z,100697.25
2018-07-31T11:46:54.582Z,100698.13
2018-07-31T11:49:24.944Z,100691.80
2018-07-31T11:51:54.884Z,100694.33
2018-07-31T11:54:24.673Z,100697.25
2018-07-31T11:56:54.480Z,100700.12
2018-07-31T11:59:24.363Z,100695.84
2018-07-31T12:01:54.335Z,100692.11
2018-07-31T12:04:24.501Z,100687.73
2018-07-31T12:06:54.727Z,100679.09
2018-07-31T12:09:24.713Z,100679.86
2018-07-31T12:11:55.072Z,100676.91
2018-07-31T12:14:24.965Z,100676.80
2018-07-31T12:16:55.128Z,100676.48
2018-07-31T12:19:25.108Z,100666.78
2018-07-31T12:21:55.725Z,100669.92
2018-07-31T12:24:26.100Z,100672.98
2018-07-31T12:26:56.028Z,100677.28
2018-07-31T12:29:26.920Z,100669.94
2018-07-31T12:31:57.078Z,100675.84
2018-07-31T12:34:27.366Z,100671.23
2018-07-31T12:36:57.323Z,100676.96
2018-07-31T12:39:27.335Z,100679.83
2018-07-31T12:41:57.588Z,100676.13
2018-07-31T12:44:27.640Z,100678.10
2018-07-31T12:46:57.564Z,100677.98
2018-07-31T12:49:27.556Z,100674.45
2018-07-31T12:51:57.555Z,100679.22
2018-07-31T12:54:27.432Z,100684.59
2018-07-31T12:56:57.285Z,100683.41
2018-07-31T12:59:27.493Z,100688.22
2018-07-31T13:01:57.885Z,100687.39
2018-07-31T13:04:27.793Z,100679.28
2018-07-31T13:06:57.712Z,100676.64
2018-07-31T13:09:27.991Z,100678.36
2018-07-31T13:11:57.984Z,100673.05
2018-07-31T13:14:28.288Z,100673.30
2018-07-31T13:16:58.229Z,100668.44
2018-07-31T13:19:28.075Z,100666.97
2018-07-31T13:21:58.140Z,100667.24
2018-07-31T13:24:28.028Z,100653.47
2018-07-31T13:26:57.985Z,100658.81
2018-07-31T13:29:28.184Z,100656.28
2018-07-31T13:31:58.752Z,100661.05
2018-07-31T13:34:30.328Z,100652.45
2018-07-31T13:37:00.287Z,100649.05
2018-07-31T13:39:30.204Z,100643.83
2018-07-31T13:42:00.407Z,100641.38
2018-07-31T13:44:30.400Z,100648.88
2018-07-31T13:47:00.630Z,100649.60
2018-07-31T13:49:30.944Z,100654.41
2018-07-31T13:52:01.212Z,100648.88
2018-07-31T13:54:31.811Z,100654.61
2018-07-31T13:57:01.536Z,100651.95
2018-07-31T13:59:31.562Z,100642.72
2018-07-31T14:02:01.873Z,100642.36
2018-07-31T14:04:32.245Z,100639.43
2018-07-31T14:07:02.219Z,100633.75
2018-07-31T14:09:32.417Z,100634.53
2018-07-31T14:12:02.416Z,100635.56
2018-07-31T14:14:32.356Z,100633.31
2018-07-31T14:17:02.467Z,100633.70
2018-07-31T14:19:32.520Z,100632.82
2018-07-31T14:22:02.768Z,100632.92
2018-07-31T14:24:32.729Z,100622.70
2018-07-31T14:27:02.576Z,100628.42
2018-07-31T14:29:32.600Z,100627.23
2018-07-31T14:32:02.866Z,100624.54
2018-07-31T14:34:32.927Z,100627.64
2018-07-31T14:37:02.852Z,100629.68
2018-07-31T14:39:33.091Z,100620.66
2018-07-31T14:42:03.380Z,100621.19
2018-07-31T14:44:33.708Z,100623.70
2018-07-31T14:47:04.148Z,100622.58
2018-07-31T14:49:34.112Z,100618.95
2018-07-31T14:52:03.965Z,100630.78
2018-07-31T14:54:33.789Z,100629.52
2018-07-31T14:57:03.612Z,100624.31
2018-07-31T14:59:33.499Z,100625.02
2018-07-31T15:02:03.420Z,100622.33
2018-07-31T15:04:33.367Z,100630.29
2018-07-31T15:07:03.361Z,100629.39
2018-07-31T15:09:33.371Z,100630.46
2018-07-31T15:12:03.424Z,100630.25
2018-07-31T15:14:33.304Z,100628.91
2018-07-31T15:17:03.558Z,100619.62
2018-07-31T15:19:33.460Z,100618.69
2018-07-31T15:22:03.354Z,100621.95
2018-07-31T15:24:33.288Z,100621.45
2018-07-31T15:27:03.238Z,100622.48
2018-07-31T15:29:33.264Z,100620.20
2018-07-31T15:32:03.562Z,100624.67
2018-07-31T15:34:33.992Z,100627.27
2018-07-31T15:37:04.157Z,100630.94
2018-07-31T15:39:34.327Z,100632.84
2018-07-31T15:42:04.728Z,100636.17
2018-07-31T15:44:34.907Z,100639.41
2018-07-31T15:47:04.853Z,100636.94
2018-07-31T15:49:35.194Z,100627.31
2018-07-31T15:52:05.050Z,100632.59
2018-07-31T15:54:34.956Z,100629.08
2018-07-31T15:57:05.005Z,100627.91
2018-07-31T15:59:35.347Z,100629.55
2018-07-31T16:02:06.134Z,100629.46
2018-07-31T16:04:36.259Z,100626.80
2018-07-31T16:07:06.249Z,100628.19
2018-07-31T16:09:36.320Z,100627.97
2018-07-31T16:12:06.476Z,100629.28
2018-07-31T16:14:36.331Z,100630.68
2018-07-31T16:17:06.515Z,100626.47
2018-07-31T16:19:36.696Z,100633.48
2018-07-31T16:22:06.931Z,100635.66
2018-07-31T16:24:36.890Z,100649.31
2018-07-31T16:27:07.061Z,100651.19
2018-07-31T16:29:37.400Z,100656.30
2018-07-31T16:32:07.846Z,100656.89
2018-07-31T16:34:38.268Z,100655.53
2018-07-31T16:37:08.215Z,100650.34
2018-07-31T16:39:38.629Z,100656.71
2018-07-31T16:42:08.740Z,100662.27
2018-07-31T16:44:38.768Z,100664.34
2018-07-31T16:47:08.629Z,100667.73
2018-07-31T16:49:38.604Z,100662.86
2018-07-31T16:52:08.875Z,100676.14
2018-07-31T16:54:38.668Z,100672.46
2018-07-31T16:57:08.852Z,100679.90
2018-07-31T16:59:38.891Z,100682.78
2018-07-31T17:02:09.068Z,100681.35
2018-07-31T17:04:39.046Z,100662.94
2018-07-31T17:07:09.207Z,100684.59
2018-07-31T17:09:39.380Z,100685.94
2018-07-31T17:12:10.163Z,100689.48
2018-07-31T17:14:40.152Z,100696.48
2018-07-31T17:17:10.451Z,100693.93
2018-07-31T17:19:41.046Z,100698.78
2018-07-31T17:22:10.972Z,100699.88
2018-07-31T17:24:41.384Z,100699.14
2018-07-31T17:27:11.708Z,100706.69
2018-07-31T17:29:41.707Z,100701.42
2018-07-31T17:32:11.932Z,100702.95
2018-07-31T17:34:42.352Z,100711.41
2018-07-31T17:37:12.265Z,100713.16
2018-07-31T17:39:42.155Z,100719.17
2018-07-31T17:42:12.172Z,100720.96
2018-07-31T17:44:42.779Z,100716.17
2018-07-31T17:47:12.781Z,100716.15
2018-07-31T17:49:42.814Z,100714.38
2018-07-31T17:52:12.746Z,100719.09
2018-07-31T17:54:42.916Z,100724.05
2018-07-31T17:57:12.719Z,100728.14
2018-07-31T17:59:48.908Z,100725.82
2018-07-31T18:02:18.944Z,100731.50
2018-07-31T18:04:48.840Z,100723.58
2018-07-31T18:07:19.172Z,100735.62
2018-07-31T18:09:49.157Z,100731.53
2018-07-31T18:12:19.006Z,100733.77
2018-07-31T18:14:48.900Z,100740.22
2018-07-31T18:17:18.948Z,100734.12
2018-07-31T18:19:48.889Z,100734.38
2018-07-31T18:22:19.191Z,100739.64
2018-07-31T18:24:49.392Z,100747.08
2018-07-31T18:27:19.321Z,100742.05
2018-07-31T18:29:49.303Z,100752.46
2018-07-31T18:32:19.339Z,100750.23
2018-07-31T18:34:49.413Z,100760.22
2018-07-31T18:37:19.589Z,100756.68
2018-07-31T18:39:49.609Z,100760.78
2018-07-31T18:42:19.702Z,100758.33
2018-07-31T18:44:49.649Z,100760.64
2018-07-31T18:47:19.661Z,100765.68
2018-07-31T18:49:49.551Z,100775.63
2018-07-31T18:52:19.598Z,100776.03
2018-07-31T18:54:49.338Z,100773.29
2018-07-31T18:57:19.256Z,100774.34
2018-07-31T18:59:49.783Z,100767.70
2018-07-31T19:02:20.013Z,100766.36
2018-07-31T19:04:50.166Z,100766.69
2018-07-31T19:07:20.434Z,100759.48
2018-07-31T19:09:50.488Z,100754.13
2018-07-31T19:12:20.421Z,100758.80
2018-07-31T19:14:50.357Z,100751.63
2018-07-31T19:17:20.444Z,100762.30
2018-07-31T19:19:50.880Z,100749.63
2018-07-31T19:22:20.715Z,100743.87
2018-07-31T19:24:50.747Z,100749.19
2018-07-31T19:27:20.593Z,100750.83
2018-07-31T19:29:50.817Z,100744.70
2018-07-31T19:32:20.868Z,100748.73
2018-07-31T19:35:01.258Z,100743.06
2018-07-31T19:37:32.192Z,100738.00
2018-07-31T19:40:02.134Z,100740.04
2018-07-31T19:42:32.241Z,100742.96
2018-07-31T19:45:02.305Z,100743.19
2018-07-31T19:47:32.399Z,100744.00
2018-07-31T19:50:02.669Z,100739.87
2018-07-31T19:52:32.676Z,100742.16
2018-07-31T19:55:02.498Z,100744.85
2018-07-31T19:57:32.460Z,100745.43
2018-07-31T20:00:02.561Z,100751.17
2018-07-31T20:02:33.009Z,100758.98
2018-07-31T20:05:02.884Z,100753.19
2018-07-31T20:07:33.216Z,100758.20
2018-07-31T20:10:03.208Z,100761.61
2018-07-31T20:12:33.736Z,100758.55
2018-07-31T20:15:03.816Z,100753.52
2018-07-31T20:17:33.900Z,100759.74
2018-07-31T20:20:03.852Z,100756.98
2018-07-31T20:22:33.840Z,100762.23
2018-07-31T20:25:04.432Z,100761.12
2018-07-31T20:27:34.572Z,100768.13
2018-07-31T20:30:05.551Z,100766.80
2018-07-31T20:32:35.904Z,100767.30
2018-07-31T20:35:06.004Z,100768.21
2018-07-31T20:37:36.162Z,100763.30
2018-07-31T20:40:06.140Z,100765.34
2018-07-31T20:42:36.256Z,100772.13
2018-07-31T20:45:06.449Z,100767.98
2018-07-31T20:47:36.964Z,100768.63
2018-07-31T20:50:06.917Z,100770.27
2018-07-31T20:52:37.305Z,100772.34
2018-07-31T20:55:07.230Z,100773.68
2018-07-31T20:57:37.855Z,100772.59
2018-07-31T21:00:08.027Z,100775.09
2018-07-31T21:02:38.207Z,100779.07
2018-07-31T21:05:08.071Z,100779.95
2018-07-31T21:07:38.985Z,100779.34
2018-07-31T21:10:09.099Z,100778.66
2018-07-31T21:12:39.052Z,100776.05
2018-07-31T21:15:08.942Z,100766.77
2018-07-31T21:17:39.117Z,100771.47
2018-07-31T21:20:09.567Z,100770.08
2018-07-31T21:22:39.649Z,100771.76
2018-07-31T21:25:09.999Z,100774.56
2018-07-31T21:27:40.651Z,100773.63
2018-07-31T21:30:10.596Z,100778.59
2018-07-31T21:32:40.632Z,100772.84
2018-07-31T21:35:10.716Z,100764.55
2018-07-31T21:37:40.635Z,100766.17
2018-07-31T21:40:10.632Z,100770.53
2018-07-31T21:42:40.690Z,100768.50
2018-07-31T21:45:10.804Z,100773.69
2018-07-31T21:47:41.342Z,100775.02
2018-07-31T21:50:11.816Z,100772.80
2018-07-31T21:52:41.793Z,100768.34
2018-07-31T21:55:11.835Z,100770.46
2018-07-31T21:57:41.839Z,100772.20
2018-07-31T22:00:12.397Z,100776.12
2018-07-31T22:02:42.311Z,100773.45
2018-07-31T22:05:12.448Z,100777.23
2018-07-31T22:07:42.529Z,100780.20
2018-07-31T22:10:12.641Z,100775.89
2018-07-31T22:12:44.934Z,100770.50
2018-07-31T22:15:14.871Z,100764.27
2018-07-31T22:17:45.076Z,100762.66
2018-07-31T22:20:15.284Z,100757.02
2018-07-31T22:22:45.555Z,100752.58
2018-07-31T22:25:15.928Z,100749.67
2018-07-31T22:27:45.927Z,100747.78
2018-07-31T22:30:15.928Z,100744.39
2018-07-31T22:32:46.044Z,100745.58
2018-07-31T22:35:16.175Z,100747.20
2018-07-31T22:37:45.939Z,100746.34
2018-07-31T22:40:16.008Z,100746.25
2018-07-31T22:42:46.056Z,100742.74
2018-07-31T22:45:16.064Z,100741.40
2018-07-31T22:47:46.212Z,100737.05
2018-07-31T22:50:16.189Z,100735.95
2018-07-31T22:52:46.129Z,100727.53
2018-07-31T22:55:15.857Z,100729.30
2018-07-31T22:57:45.816Z,100722.88
2018-07-31T23:00:15.771Z,100725.77
2018-07-31T23:02:45.772Z,100724.45
2018-07-31T23:05:15.894Z,100723.54
2018-07-31T23:07:45.915Z,100720.19
2018-07-31T23:10:19.855Z,100719.19
2018-07-31T23:12:50.434Z,100718.78
2018-07-31T23:15:20.614Z,100723.02
2018-07-31T23:17:50.798Z,100722.02
2018-07-31T23:20:20.724Z,100723.30
2018-07-31T23:22:51.808Z,100721.47
2018-07-31T23:25:22.472Z,100727.66
2018-07-31T23:27:53.068Z,100726.47
2018-07-31T23:30:23.160Z,100732.97
2018-07-31T23:32:53.692Z,100736.13
2018-07-31T23:35:23.818Z,100735.83
2018-07-31T23:37:54.001Z,100713.41
2018-07-31T23:40:23.927Z,100732.33
2018-07-31T23:42:54.044Z,100737.98
2018-07-31T23:45:24.054Z,100740.77
2018-07-31T23:47:54.241Z,100740.62
2018-07-31T23:50:24.211Z,100744.20
2018-07-31T23:52:54.309Z,100738.45
2018-07-31T23:55:24.129Z,100738.11
2018-07-31T23:57:54.544Z,100739.66
